createdAt,value
2019-05-02T00:00:40.992Z,35.70
2019-05-02T00:01:40.981Z,35.90
2019-05-02T00:02:40.975Z,34.70
2019-05-02T00:03:42.799Z,35.60
2019-05-02T00:04:40.950Z,36.10
2019-05-02T00:05:40.961Z,36.10
2019-05-02T00:06:42.887Z,35.90
2019-05-02T00:07:40.918Z,37.10
2019-05-02T00:08:40.916Z,38.70
2019-05-02T00:09:47.415Z,40.20
2019-05-02T00:10:41.887Z,40.80
2019-05-02T00:11:40.881Z,39.70
2019-05-02T00:12:40.864Z,36.60
2019-05-02T00:13:40.860Z,37.20
2019-05-02T00:14:40.862Z,38.00
2019-05-02T00:15:40.840Z,37.50
2019-05-02T00:16:45.032Z,36.30
2019-05-02T00:17:41.807Z,36.50
2019-05-02T00:18:40.800Z,38.90
2019-05-02T00:19:45.218Z,37.00
2019-05-02T00:20:41.778Z,37.10
2019-05-02T00:21:43.101Z,37.50
2019-05-02T00:22:40.757Z,37.80
2019-05-02T00:23:40.747Z,37.20
2019-05-02T00:24:41.089Z,38.50
2019-05-02T00:25:40.733Z,38.10
2019-05-02T00:26:40.717Z,37.40
2019-05-02T00:27:40.715Z,36.90
2019-05-02T00:28:42.958Z,38.50
2019-05-02T00:29:41.681Z,38.10
2019-05-02T00:30:40.668Z,39.50
2019-05-02T00:31:41.999Z,38.50
2019-05-02T00:32:41.647Z,36.40
2019-05-02T00:33:40.659Z,38.80
2019-05-02T00:34:40.625Z,38.00
2019-05-02T00:35:45.533Z,37.40
2019-05-02T00:36:41.605Z,39.30
2019-05-02T00:37:40.597Z,37.90
2019-05-02T00:38:40.592Z,38.90
2019-05-02T00:39:40.572Z,40.10
2019-05-02T00:40:40.562Z,42.10
2019-05-02T00:41:40.586Z,40.30
2019-05-02T00:42:40.542Z,40.80
2019-05-02T00:43:40.527Z,41.70
2019-05-02T00:44:42.068Z,40.80
2019-05-02T00:45:41.516Z,40.50
2019-05-02T00:46:40.500Z,40.80
2019-05-02T00:47:42.409Z,42.30
2019-05-02T00:48:41.473Z,40.60
2019-05-02T00:49:40.467Z,40.10
2019-05-02T00:50:44.962Z,39.50
2019-05-02T00:51:40.443Z,40.00
2019-05-02T00:52:40.431Z,39.40
2019-05-02T00:53:44.497Z,39.40
2019-05-02T00:54:41.423Z,41.00
2019-05-02T00:55:40.408Z,40.70
2019-05-02T00:56:44.005Z,39.60
2019-05-02T00:57:40.377Z,38.90
2019-05-02T00:58:40.368Z,39.00
2019-05-02T00:59:42.410Z,41.10
2019-05-02T01:00:40.368Z,40.30
2019-05-02T01:01:40.345Z,39.70
2019-05-02T01:02:41.721Z,38.80
2019-05-02T01:03:40.315Z,39.50
2019-05-02T01:04:40.305Z,40.10
2019-05-02T01:05:40.353Z,39.20
2019-05-02T01:06:54.807Z,40.20
2019-05-02T01:07:40.276Z,39.60
2019-05-02T01:08:40.259Z,39.60
2019-05-02T01:09:42.154Z,39.10
2019-05-02T01:10:41.246Z,41.20
2019-05-02T01:11:40.226Z,43.80
2019-05-02T01:12:44.310Z,41.50
2019-05-02T01:13:41.206Z,41.40
2019-05-02T01:14:40.203Z,41.30
2019-05-02T01:15:44.153Z,41.10
2019-05-02T01:16:40.172Z,42.00
2019-05-02T01:17:40.165Z,40.40
2019-05-02T01:18:41.293Z,41.10
2019-05-02T01:19:40.155Z,41.90
2019-05-02T01:20:40.142Z,43.20
2019-05-02T01:21:40.202Z,42.30
2019-05-02T01:22:40.109Z,42.40
2019-05-02T01:23:40.121Z,42.80
2019-05-02T01:24:41.675Z,38.50
2019-05-02T01:25:40.076Z,40.00
2019-05-02T01:26:40.066Z,40.90
2019-05-02T01:27:41.213Z,39.80
2019-05-02T01:28:40.042Z,42.00
2019-05-02T01:29:40.063Z,41.90
2019-05-02T01:30:42.346Z,43.70
2019-05-02T01:31:40.010Z,42.90
2019-05-02T01:32:40.001Z,41.80
2019-05-02T01:33:41.660Z,39.50
2019-05-02T01:34:39.979Z,42.90
2019-05-02T01:35:40.000Z,42.90
2019-05-02T01:36:41.057Z,38.90
2019-05-02T01:37:39.945Z,40.10
2019-05-02T01:38:39.938Z,41.60
2019-05-02T01:39:42.753Z,42.90
2019-05-02T01:40:39.923Z,42.60
2019-05-02T01:41:39.905Z,41.80
2019-05-02T01:42:44.249Z,42.90
2019-05-02T01:43:39.881Z,41.00
2019-05-02T01:44:39.872Z,41.00
2019-05-02T01:45:41.856Z,40.90
2019-05-02T01:46:39.858Z,42.20
2019-05-02T01:47:39.851Z,42.80
2019-05-02T01:48:45.058Z,42.30
2019-05-02T01:49:40.816Z,41.60
2019-05-02T01:50:39.867Z,41.60
2019-05-02T01:51:42.055Z,42.80
2019-05-02T01:52:40.809Z,42.20
2019-05-02T01:53:39.789Z,42.70
2019-05-02T01:54:40.766Z,41.90
2019-05-02T01:55:40.775Z,40.90
2019-05-02T01:56:39.740Z,43.40
2019-05-02T01:57:39.997Z,43.00
2019-05-02T01:58:39.720Z,41.10
2019-05-02T01:59:39.712Z,42.30
2019-05-02T02:00:40.858Z,42.70
2019-05-02T02:01:39.686Z,42.40
2019-05-02T02:02:39.677Z,42.60
2019-05-02T02:03:40.482Z,43.40
2019-05-02T02:04:40.655Z,44.80
2019-05-02T02:05:39.651Z,43.80
2019-05-02T02:06:43.418Z,43.20
2019-05-02T02:07:40.647Z,44.20
2019-05-02T02:08:39.610Z,47.80
2019-05-02T02:09:44.117Z,45.90
2019-05-02T02:10:43.602Z,43.90
2019-05-02T02:11:39.604Z,43.30
2019-05-02T02:12:41.216Z,42.50
2019-05-02T02:13:40.583Z,44.20
2019-05-02T02:14:39.554Z,48.10
2019-05-02T02:15:39.542Z,45.20
2019-05-02T02:16:40.468Z,47.40
2019-05-02T02:17:39.530Z,45.80
2019-05-02T02:18:39.501Z,44.80
2019-05-02T02:19:40.704Z,47.50
2019-05-02T02:20:39.481Z,45.70
2019-05-02T02:21:42.560Z,44.80
2019-05-02T02:22:41.119Z,43.20
2019-05-02T02:23:39.455Z,51.00
2019-05-02T02:24:39.437Z,44.40
2019-05-02T02:25:39.427Z,48.30
2019-05-02T02:26:39.443Z,53.30
2019-05-02T02:27:39.406Z,52.90
2019-05-02T02:28:39.401Z,49.80
2019-05-02T02:29:43.952Z,53.30
2019-05-02T02:30:40.374Z,49.00
2019-05-02T02:31:45.992Z,52.30
2019-05-02T02:32:40.363Z,51.40
2019-05-02T02:33:41.051Z,50.20
2019-05-02T02:34:40.338Z,47.20
2019-05-02T02:35:49.816Z,47.90
2019-05-02T02:36:40.343Z,50.00
2019-05-02T02:37:39.298Z,46.50
2019-05-02T02:38:39.293Z,47.20
2019-05-02T02:39:39.301Z,48.70
2019-05-02T02:40:39.269Z,49.10
2019-05-02T02:41:39.258Z,50.20
2019-05-02T02:42:39.245Z,48.80
2019-05-02T02:43:39.233Z,48.00
2019-05-02T02:44:39.935Z,47.60
2019-05-02T02:45:39.214Z,49.10
2019-05-02T02:46:40.066Z,45.60
2019-05-02T02:47:39.193Z,47.30
2019-05-02T02:48:40.559Z,50.20
2019-05-02T02:49:39.195Z,51.40
2019-05-02T02:50:43.136Z,51.20
2019-05-02T02:51:40.159Z,49.60
2019-05-02T02:52:44.453Z,49.60
2019-05-02T02:53:40.129Z,51.30
2019-05-02T02:54:43.518Z,50.70
2019-05-02T02:55:40.119Z,54.00
2019-05-02T02:56:40.402Z,53.40
2019-05-02T02:57:39.114Z,53.60
2019-05-02T02:58:45.503Z,53.40
2019-05-02T02:59:40.074Z,52.50
2019-05-02T03:00:41.391Z,53.80
2019-05-02T03:01:40.052Z,59.90
2019-05-02T03:02:47.827Z,53.70
2019-05-02T03:03:40.018Z,62.40
2019-05-02T03:04:44.227Z,60.60
2019-05-02T03:05:39.998Z,61.40
2019-05-02T03:06:44.962Z,55.20
2019-05-02T03:07:39.987Z,54.60
2019-05-02T03:08:46.397Z,53.00
2019-05-02T03:09:39.959Z,52.40
2019-05-02T03:10:39.930Z,57.10
2019-05-02T03:11:40.052Z,56.50
2019-05-02T03:12:41.439Z,57.60
2019-05-02T03:13:51.503Z,63.40
2019-05-02T03:14:40.927Z,56.20
2019-05-02T03:15:39.890Z,57.70
2019-05-02T03:16:45.969Z,58.10
2019-05-02T03:17:39.881Z,56.70
2019-05-02T03:18:40.729Z,55.90
2019-05-02T03:19:38.845Z,56.80
2019-05-02T03:20:40.648Z,54.70
2019-05-02T03:21:38.827Z,54.70
2019-05-02T03:22:41.943Z,59.10
2019-05-02T03:23:38.802Z,56.30
2019-05-02T03:24:44.053Z,55.50
2019-05-02T03:25:50.486Z,62.80
2019-05-02T03:26:39.786Z,61.50
2019-05-02T03:27:40.390Z,58.30
2019-05-02T03:28:38.754Z,61.00
2019-05-02T03:29:43.925Z,62.90
2019-05-02T03:30:39.732Z,64.80
2019-05-02T03:31:38.732Z,60.60
2019-05-02T03:32:38.829Z,59.30
2019-05-02T03:33:52.680Z,61.70
2019-05-02T03:34:51.990Z,68.40
2019-05-02T03:35:43.723Z,60.80
2019-05-02T03:36:39.675Z,65.70
2019-05-02T03:37:44.694Z,63.20
2019-05-02T03:38:39.641Z,62.20
2019-05-02T03:39:38.678Z,59.20
2019-05-02T03:40:41.098Z,60.70
2019-05-02T03:41:38.613Z,58.90
2019-05-02T03:42:44.550Z,61.00
2019-05-02T03:43:39.591Z,58.00
2019-05-02T03:44:38.577Z,56.20
2019-05-02T03:45:42.803Z,64.70
2019-05-02T03:46:38.557Z,60.90
2019-05-02T03:47:43.997Z,53.80
2019-05-02T03:48:39.598Z,56.50
2019-05-02T03:49:40.818Z,59.00
2019-05-02T03:50:39.510Z,56.50
2019-05-02T03:51:38.503Z,55.90
2019-05-02T03:52:43.993Z,55.40
2019-05-02T03:53:39.480Z,56.10
2019-05-02T03:54:49.022Z,55.10
2019-05-02T03:55:39.460Z,55.70
2019-05-02T03:56:38.448Z,59.60
2019-05-02T03:57:41.881Z,56.60
2019-05-02T03:58:38.435Z,58.10
2019-05-02T03:59:41.614Z,61.30
2019-05-02T04:00:38.411Z,58.10
2019-05-02T04:01:41.174Z,55.50
2019-05-02T04:02:38.392Z,57.40
2019-05-02T04:03:41.076Z,55.70
2019-05-02T04:04:39.362Z,58.30
2019-05-02T04:05:40.439Z,62.60
2019-05-02T04:06:38.346Z,60.00
2019-05-02T04:07:40.565Z,62.00
2019-05-02T04:08:38.318Z,58.50
2019-05-02T04:09:39.763Z,57.20
2019-05-02T04:10:38.302Z,58.50
2019-05-02T04:11:40.679Z,60.60
2019-05-02T04:12:38.307Z,61.10
2019-05-02T04:13:38.296Z,59.50
2019-05-02T04:14:38.921Z,60.40
2019-05-02T04:15:38.248Z,64.10
2019-05-02T04:16:38.238Z,61.40
2019-05-02T04:17:38.221Z,60.70
2019-05-02T04:18:38.220Z,56.80
2019-05-02T04:19:38.199Z,54.70
2019-05-02T04:20:43.515Z,61.30
2019-05-02T04:21:39.196Z,61.90
2019-05-02T04:22:42.702Z,61.40
2019-05-02T04:23:39.174Z,62.90
2019-05-02T04:24:38.169Z,63.40
2019-05-02T04:25:38.143Z,64.00
2019-05-02T04:26:38.124Z,62.10
2019-05-02T04:27:38.113Z,61.00
2019-05-02T04:28:38.121Z,65.90
2019-05-02T04:29:38.105Z,65.30
2019-05-02T04:30:38.082Z,66.30
2019-05-02T04:31:38.070Z,65.10
2019-05-02T04:32:38.059Z,61.60
2019-05-02T04:33:38.057Z,68.40
2019-05-02T04:34:38.036Z,63.60
2019-05-02T04:35:38.033Z,63.70
2019-05-02T04:36:38.015Z,69.80
2019-05-02T04:37:41.148Z,65.10
2019-05-02T04:38:47.464Z,63.90
2019-05-02T04:39:39.323Z,61.90
2019-05-02T04:40:41.717Z,66.40
2019-05-02T04:41:42.299Z,64.00
2019-05-02T04:42:39.300Z,64.80
2019-05-02T04:43:40.805Z,64.90
2019-05-02T04:44:44.387Z,62.60
2019-05-02T04:45:54.796Z,63.50
2019-05-02T04:46:38.968Z,63.70
2019-05-02T04:47:39.010Z,64.10
2019-05-02T04:48:43.774Z,63.80
2019-05-02T04:49:39.336Z,63.60
2019-05-02T04:50:38.004Z,65.50
2019-05-02T04:51:38.272Z,63.50
2019-05-02T04:52:47.242Z,59.20
2019-05-02T04:53:44.347Z,61.40
2019-05-02T04:54:39.105Z,62.40
2019-05-02T04:55:38.237Z,61.50
2019-05-02T04:56:42.089Z,60.40
2019-05-02T04:57:46.882Z,60.70
2019-05-02T04:58:40.659Z,59.60
2019-05-02T04:59:39.430Z,60.10
2019-05-02T05:00:39.199Z,58.90
2019-05-02T05:01:43.444Z,60.90
2019-05-02T05:02:39.989Z,59.80
2019-05-02T05:03:37.759Z,60.40
2019-05-02T05:04:42.465Z,59.00
2019-05-02T05:05:40.325Z,60.60
2019-05-02T05:06:40.749Z,57.00
2019-05-02T05:07:44.477Z,60.10
2019-05-02T05:08:41.562Z,58.30
2019-05-02T05:09:40.148Z,60.30
2019-05-02T05:10:41.498Z,57.40
2019-05-02T05:11:38.638Z,59.20
2019-05-02T05:12:41.691Z,58.50
2019-05-02T05:13:37.621Z,58.50
2019-05-02T05:14:42.767Z,57.90
2019-05-02T05:15:48.465Z,56.90
2019-05-02T05:16:40.129Z,56.40
2019-05-02T05:17:37.623Z,54.90
2019-05-02T05:18:37.955Z,54.60
2019-05-02T05:19:37.553Z,55.80
2019-05-02T05:20:38.554Z,53.20
2019-05-02T05:21:37.534Z,51.50
2019-05-02T05:22:44.304Z,53.60
2019-05-02T05:23:38.506Z,54.70
2019-05-02T05:24:40.665Z,52.60
2019-05-02T05:25:37.988Z,54.40
2019-05-02T05:26:41.006Z,53.50
2019-05-02T05:27:38.464Z,53.80
2019-05-02T05:28:42.671Z,53.90
2019-05-02T05:29:38.818Z,54.40
2019-05-02T05:30:44.926Z,54.10
2019-05-02T05:31:38.430Z,52.50
2019-05-02T05:32:37.608Z,53.50
2019-05-02T05:33:37.825Z,55.10
2019-05-02T05:34:37.953Z,54.30
2019-05-02T05:35:38.538Z,54.40
2019-05-02T05:36:37.583Z,55.00
2019-05-02T05:37:38.180Z,54.10
2019-05-02T05:38:40.440Z,55.40
2019-05-02T05:39:38.141Z,53.30
2019-05-02T05:40:37.657Z,54.30
2019-05-02T05:41:37.896Z,54.70
2019-05-02T05:42:37.898Z,51.90
2019-05-02T05:43:37.982Z,53.70
2019-05-02T05:44:37.525Z,53.60
2019-05-02T05:45:48.647Z,50.90
2019-05-02T05:46:42.420Z,51.50
2019-05-02T05:47:37.805Z,51.70
2019-05-02T05:48:40.797Z,49.20
2019-05-02T05:49:37.590Z,47.70
2019-05-02T05:50:41.253Z,50.10
2019-05-02T05:51:37.547Z,48.40
2019-05-02T05:52:38.693Z,47.10
2019-05-02T05:53:37.595Z,48.40
2019-05-02T05:54:39.547Z,48.70
2019-05-02T05:55:38.295Z,48.10
2019-05-02T05:56:42.971Z,48.90
2019-05-02T05:57:38.548Z,50.30
2019-05-02T05:58:39.858Z,51.10
2019-05-02T05:59:38.155Z,47.40
2019-05-02T06:00:38.021Z,48.00
2019-05-02T06:01:38.399Z,48.50
2019-05-02T06:02:50.814Z,47.40
2019-05-02T06:03:41.891Z,47.50
2019-05-02T06:04:38.785Z,46.90
2019-05-02T06:05:38.546Z,45.50
2019-05-02T06:06:37.762Z,45.10
2019-05-02T06:07:41.783Z,46.50
2019-05-02T06:08:38.022Z,46.80
2019-05-02T06:09:37.039Z,46.30
2019-05-02T06:10:39.086Z,46.50
2019-05-02T06:11:37.989Z,45.30
2019-05-02T06:12:36.987Z,44.60
2019-05-02T06:13:38.172Z,44.00
2019-05-02T06:14:36.958Z,44.00
2019-05-02T06:15:38.919Z,43.20
2019-05-02T06:16:36.947Z,42.70
2019-05-02T06:17:36.925Z,44.60
2019-05-02T06:18:41.722Z,44.30
2019-05-02T06:19:37.902Z,41.60
2019-05-02T06:20:36.945Z,39.80
2019-05-02T06:21:40.081Z,42.00
2019-05-02T06:22:37.987Z,40.80
2019-05-02T06:23:41.080Z,41.30
2019-05-02T06:24:36.880Z,40.20
2019-05-02T06:25:37.031Z,38.00
2019-05-02T06:26:36.828Z,38.50
2019-05-02T06:27:36.816Z,39.90
2019-05-02T06:28:41.687Z,39.80
2019-05-02T06:29:37.794Z,36.80
2019-05-02T06:30:36.811Z,37.70
2019-05-02T06:31:38.193Z,36.70
2019-05-02T06:32:37.763Z,37.20
2019-05-02T06:33:36.756Z,38.30
2019-05-02T06:34:38.762Z,36.90
2019-05-02T06:35:37.743Z,36.50
2019-05-02T06:36:38.018Z,36.60
2019-05-02T06:37:36.722Z,34.90
2019-05-02T06:38:36.699Z,35.20
2019-05-02T06:39:36.709Z,35.80
2019-05-02T06:40:39.289Z,34.80
2019-05-02T06:41:37.671Z,34.50
2019-05-02T06:42:38.054Z,36.40
2019-05-02T06:43:41.254Z,35.00
2019-05-02T06:44:37.694Z,35.00
2019-05-02T06:45:37.491Z,34.20
2019-05-02T06:46:36.618Z,32.40
2019-05-02T06:47:41.504Z,32.10
2019-05-02T06:48:37.591Z,31.40
2019-05-02T06:49:36.581Z,32.60
2019-05-02T06:50:38.921Z,31.30
2019-05-02T06:51:36.563Z,33.00
2019-05-02T06:52:36.554Z,31.90
2019-05-02T06:53:36.557Z,32.10
2019-05-02T06:54:36.543Z,32.50
2019-05-02T06:55:38.739Z,32.20
2019-05-02T06:56:36.512Z,32.40
2019-05-02T06:57:36.498Z,30.80
2019-05-02T06:58:37.190Z,31.60
2019-05-02T06:59:36.479Z,30.90
2019-05-02T07:00:49.941Z,30.20
2019-05-02T07:01:37.453Z,29.30
2019-05-02T07:02:36.442Z,30.10
2019-05-02T07:03:36.436Z,30.00
2019-05-02T07:04:36.428Z,30.00
2019-05-02T07:05:36.454Z,30.40
2019-05-02T07:06:55.919Z,29.50
2019-05-02T07:07:37.778Z,29.80
2019-05-02T07:08:36.379Z,31.10
2019-05-02T07:09:41.028Z,30.50
2019-05-02T07:10:44.596Z,30.80
2019-05-02T07:11:38.956Z,28.20
2019-05-02T07:12:36.378Z,30.70
2019-05-02T07:13:42.211Z,30.30
2019-05-02T07:14:37.317Z,30.20
2019-05-02T07:15:38.581Z,30.20
2019-05-02T07:16:38.853Z,29.00
2019-05-02T07:17:38.319Z,28.60
2019-05-02T07:18:36.276Z,28.20
2019-05-02T07:19:36.272Z,29.40
2019-05-02T07:20:40.668Z,26.40
2019-05-02T07:21:37.242Z,29.30
2019-05-02T07:22:38.809Z,28.80
2019-05-02T07:23:36.249Z,28.80
2019-05-02T07:24:36.228Z,29.30
2019-05-02T07:25:39.130Z,29.00
2019-05-02T07:26:36.190Z,28.60
2019-05-02T07:27:38.916Z,28.90
2019-05-02T07:28:40.442Z,28.90
2019-05-02T07:29:37.161Z,28.70
2019-05-02T07:30:36.316Z,27.60
2019-05-02T07:31:36.135Z,27.70
2019-05-02T07:32:36.123Z,27.80
2019-05-02T07:33:37.481Z,28.00
2019-05-02T07:34:36.119Z,27.60
2019-05-02T07:35:36.100Z,25.70
2019-05-02T07:36:36.767Z,27.50
2019-05-02T07:37:36.076Z,27.20
2019-05-02T07:38:36.057Z,26.30
2019-05-02T07:39:40.528Z,25.60
2019-05-02T07:40:36.036Z,26.60
2019-05-02T07:41:37.273Z,25.30
2019-05-02T07:42:36.953Z,24.30
2019-05-02T07:43:37.022Z,24.60
2019-05-02T07:44:35.991Z,24.30
2019-05-02T07:45:40.191Z,23.90
2019-05-02T07:46:37.001Z,23.50
2019-05-02T07:47:40.450Z,22.40
2019-05-02T07:48:36.947Z,22.10
2019-05-02T07:49:35.936Z,21.20
2019-05-02T07:50:35.930Z,22.40
2019-05-02T07:51:35.929Z,20.70
2019-05-02T07:52:35.962Z,20.50
2019-05-02T07:53:35.898Z,20.10
2019-05-02T07:54:35.884Z,21.00
2019-05-02T07:55:40.823Z,20.20
2019-05-02T07:56:36.881Z,21.20
2019-05-02T07:57:35.854Z,20.70
2019-05-02T07:58:38.440Z,20.80
2019-05-02T07:59:36.830Z,20.60
2019-05-02T08:00:37.117Z,21.30
2019-05-02T08:01:35.821Z,21.50
2019-05-02T08:02:35.804Z,20.60
2019-05-02T08:03:35.888Z,20.20
2019-05-02T08:04:35.782Z,19.90
2019-05-02T08:05:35.765Z,20.40
2019-05-02T08:06:40.004Z,22.40
2019-05-02T08:07:36.792Z,22.50
2019-05-02T08:08:36.436Z,19.80
2019-05-02T08:09:39.276Z,24.10
2019-05-02T08:10:36.709Z,22.30
2019-05-02T08:11:37.106Z,23.30
2019-05-02T08:12:35.689Z,22.00
2019-05-02T08:13:35.679Z,21.50
2019-05-02T08:14:36.421Z,22.80
2019-05-02T08:15:35.665Z,23.10
2019-05-02T08:16:35.704Z,23.30
2019-05-02T08:17:35.634Z,21.70
2019-05-02T08:18:35.648Z,22.60
2019-05-02T08:19:37.534Z,22.20
2019-05-02T08:20:36.623Z,21.80
2019-05-02T08:21:35.603Z,21.70
2019-05-02T08:22:35.607Z,21.30
2019-05-02T08:23:35.573Z,19.70
2019-05-02T08:24:37.942Z,19.20
2019-05-02T08:25:35.570Z,17.40
2019-05-02T08:26:35.544Z,18.00
2019-05-02T08:27:36.718Z,17.00
2019-05-02T08:28:35.517Z,15.60
2019-05-02T08:29:35.507Z,16.40
2019-05-02T08:30:40.347Z,15.40
2019-05-02T08:31:36.491Z,14.60
2019-05-02T08:32:35.832Z,14.70
2019-05-02T08:33:35.959Z,14.90
2019-05-02T08:34:35.453Z,15.80
2019-05-02T08:35:35.445Z,14.30
2019-05-02T08:36:35.437Z,13.90
2019-05-02T08:37:40.877Z,13.90
2019-05-02T08:38:36.409Z,14.90
2019-05-02T08:39:35.414Z,14.60
2019-05-02T08:40:35.388Z,14.80
2019-05-02T08:41:35.382Z,15.20
2019-05-02T08:42:35.380Z,13.30
2019-05-02T08:43:35.356Z,14.40
2019-05-02T08:44:35.350Z,13.80
2019-05-02T08:45:38.132Z,14.50
2019-05-02T08:46:35.329Z,15.20
2019-05-02T08:47:35.333Z,15.10
2019-05-02T08:48:36.437Z,15.10
2019-05-02T08:49:36.320Z,14.90
2019-05-02T08:50:35.323Z,15.90
2019-05-02T08:51:35.279Z,15.00
2019-05-02T08:52:36.837Z,14.60
2019-05-02T08:53:36.257Z,16.00
2019-05-02T08:54:35.241Z,16.00
2019-05-02T08:55:35.230Z,16.40
2019-05-02T08:56:35.228Z,16.50
2019-05-02T08:57:36.327Z,16.40
2019-05-02T08:58:35.199Z,15.50
2019-05-02T08:59:35.186Z,15.00
2019-05-02T09:00:37.425Z,15.30
2019-05-02T09:01:35.710Z,15.00
2019-05-02T09:02:41.414Z,14.90
2019-05-02T09:03:54.716Z,14.60
2019-05-02T09:04:36.132Z,13.90
2019-05-02T09:05:36.942Z,16.10
2019-05-02T09:06:36.133Z,15.40
2019-05-02T09:07:37.197Z,14.20
2019-05-02T09:08:35.192Z,13.80
2019-05-02T09:09:35.085Z,14.00
2019-05-02T09:10:37.063Z,15.20
2019-05-02T09:11:36.075Z,15.10
2019-05-02T09:12:36.873Z,15.10
2019-05-02T09:13:36.047Z,13.70
2019-05-02T09:14:35.028Z,15.20
2019-05-02T09:15:35.359Z,16.00
2019-05-02T09:16:35.042Z,15.10
2019-05-02T09:17:38.639Z,16.10
2019-05-02T09:18:38.270Z,14.30
2019-05-02T09:19:35.978Z,13.50
2019-05-02T09:20:34.964Z,13.40
2019-05-02T09:21:36.046Z,12.30
2019-05-02T09:22:34.949Z,12.50
2019-05-02T09:23:37.100Z,13.40
2019-05-02T09:24:34.937Z,13.00
2019-05-02T09:25:34.916Z,11.80
2019-05-02T09:26:38.445Z,12.00
2019-05-02T09:27:34.895Z,12.00
2019-05-02T09:28:34.891Z,12.00
2019-05-02T09:29:37.301Z,11.60
2019-05-02T09:30:35.867Z,10.50
2019-05-02T09:31:36.716Z,9.70
2019-05-02T09:32:37.209Z,9.80
2019-05-02T09:33:36.864Z,9.10
2019-05-02T09:34:35.822Z,9.90
2019-05-02T09:35:34.810Z,10.00
2019-05-02T09:36:34.799Z,8.90
2019-05-02T09:37:34.798Z,9.40
2019-05-02T09:38:34.863Z,8.70
2019-05-02T09:39:36.505Z,9.40
2019-05-02T09:40:34.755Z,9.80
2019-05-02T09:41:36.258Z,10.30
2019-05-02T09:42:34.736Z,10.70
2019-05-02T09:43:38.970Z,10.60
2019-05-02T09:44:34.719Z,10.30
2019-05-02T09:45:37.426Z,9.90
2019-05-02T09:46:34.691Z,10.60
2019-05-02T09:47:46.985Z,10.10
2019-05-02T09:48:35.691Z,10.40
2019-05-02T09:49:34.660Z,9.40
2019-05-02T09:50:37.937Z,9.00
2019-05-02T09:51:34.641Z,9.10
2019-05-02T09:52:39.530Z,8.50
2019-05-02T09:53:35.625Z,8.80
2019-05-02T09:54:37.013Z,9.30
2019-05-02T09:55:35.603Z,9.40
2019-05-02T09:56:34.586Z,9.30
2019-05-02T09:57:34.576Z,8.40
2019-05-02T09:58:34.566Z,8.70
2019-05-02T09:59:34.629Z,8.60
2019-05-02T10:00:36.205Z,8.90
2019-05-02T10:01:35.838Z,9.50
2019-05-02T10:02:34.523Z,10.30
2019-05-02T10:03:34.518Z,9.90
2019-05-02T10:04:34.517Z,11.00
2019-05-02T10:05:34.494Z,11.00
2019-05-02T10:06:34.491Z,12.40
2019-05-02T10:07:34.473Z,11.80
2019-05-02T10:08:38.307Z,11.60
2019-05-02T10:09:35.456Z,12.10
2019-05-02T10:10:37.037Z,11.70
2019-05-02T10:11:35.441Z,12.00
2019-05-02T10:12:34.442Z,11.60
2019-05-02T10:13:34.421Z,11.50
2019-05-02T10:14:34.418Z,12.60
2019-05-02T10:15:34.460Z,11.80
2019-05-02T10:16:34.377Z,10.80
2019-05-02T10:17:37.478Z,12.00
2019-05-02T10:18:35.368Z,10.60
2019-05-02T10:19:34.347Z,10.60
2019-05-02T10:20:36.391Z,10.20
2019-05-02T10:21:34.326Z,9.10
2019-05-02T10:22:39.312Z,8.90
2019-05-02T10:23:35.302Z,9.40
2019-05-02T10:24:34.298Z,9.90
2019-05-02T10:25:38.692Z,8.70
2019-05-02T10:26:34.269Z,10.00
2019-05-02T10:27:38.493Z,8.50
2019-05-02T10:28:35.253Z,9.00
2019-05-02T10:29:34.244Z,8.50
2019-05-02T10:30:36.057Z,8.40
2019-05-02T10:31:37.564Z,6.40
2019-05-02T10:32:34.211Z,6.70
2019-05-02T10:33:37.622Z,4.70
2019-05-02T10:34:34.189Z,4.30
2019-05-02T10:35:40.400Z,4.40
2019-05-02T10:36:35.284Z,4.60
2019-05-02T10:37:38.240Z,4.50
2019-05-02T10:38:35.158Z,4.40
2019-05-02T10:39:37.811Z,4.40
2019-05-02T10:40:34.135Z,4.30
2019-05-02T10:41:39.445Z,4.50
2019-05-02T10:42:35.102Z,4.40
2019-05-02T10:43:34.088Z,4.10
2019-05-02T10:44:36.453Z,4.10
2019-05-02T10:45:34.072Z,3.60
2019-05-02T10:46:37.653Z,3.90
2019-05-02T10:47:36.332Z,4.00
2019-05-02T10:48:34.035Z,3.60
2019-05-02T10:49:34.036Z,3.80
2019-05-02T10:50:34.012Z,4.30
2019-05-02T10:51:34.005Z,4.10
2019-05-02T10:52:34.395Z,4.10
2019-05-02T10:53:33.990Z,3.80
2019-05-02T10:54:37.567Z,3.90
2019-05-02T10:55:33.957Z,3.40
2019-05-02T10:56:33.953Z,3.60
2019-05-02T10:57:33.943Z,3.70
2019-05-02T10:58:35.728Z,3.50
2019-05-02T10:59:33.937Z,3.50
2019-05-02T11:00:33.906Z,3.20
2019-05-02T11:01:33.892Z,3.80
2019-05-02T11:02:33.883Z,3.80
2019-05-02T11:03:38.111Z,3.60
2019-05-02T11:04:34.864Z,3.70
2019-05-02T11:05:37.072Z,3.20
2019-05-02T11:06:37.106Z,3.90
2019-05-02T11:07:34.866Z,4.10
2019-05-02T11:08:36.811Z,3.70
2019-05-02T11:09:34.813Z,4.00
2019-05-02T11:10:33.810Z,3.90
2019-05-02T11:11:33.788Z,3.90
2019-05-02T11:12:41.866Z,4.00
2019-05-02T11:13:34.767Z,3.70
2019-05-02T11:14:33.765Z,3.80
2019-05-02T11:15:33.770Z,3.90
2019-05-02T11:16:33.763Z,4.10
2019-05-02T11:17:36.188Z,3.80
2019-05-02T11:18:42.308Z,3.50
2019-05-02T11:19:34.709Z,3.60
2019-05-02T11:20:33.732Z,3.50
2019-05-02T11:21:33.681Z,3.70
2019-05-02T11:22:33.693Z,3.80
2019-05-02T11:23:33.703Z,3.40
2019-05-02T11:24:33.654Z,3.40
2019-05-02T11:25:33.646Z,3.10
2019-05-02T11:26:33.641Z,3.30
2019-05-02T11:27:33.633Z,3.30
2019-05-02T11:28:33.658Z,3.70
2019-05-02T11:29:33.597Z,3.30
2019-05-02T11:30:33.588Z,3.10
2019-05-02T11:31:33.584Z,3.90
2019-05-02T11:32:33.570Z,3.20
2019-05-02T11:33:33.638Z,3.40
2019-05-02T11:34:33.573Z,3.50
2019-05-02T11:35:33.533Z,3.40
2019-05-02T11:36:33.527Z,3.50
2019-05-02T11:37:33.518Z,3.30
2019-05-02T11:38:33.838Z,3.60
2019-05-02T11:39:44.138Z,3.70
2019-05-02T11:40:34.480Z,3.50
2019-05-02T11:41:33.530Z,4.20
2019-05-02T11:42:33.463Z,3.70
2019-05-02T11:43:37.254Z,3.40
2019-05-02T11:44:34.451Z,3.10
2019-05-02T11:45:33.445Z,3.70
2019-05-02T11:46:37.597Z,3.20
2019-05-02T11:47:34.430Z,3.30
2019-05-02T11:48:33.399Z,3.70
2019-05-02T11:49:33.402Z,3.70
2019-05-02T11:50:35.478Z,4.00
2019-05-02T11:51:33.381Z,3.60
2019-05-02T11:52:37.351Z,3.50
2019-05-02T11:53:33.346Z,3.30
2019-05-02T11:54:33.334Z,3.30
2019-05-02T11:55:33.327Z,3.60
2019-05-02T11:56:33.481Z,4.00
2019-05-02T11:57:33.363Z,3.50
2019-05-02T11:58:33.309Z,3.60
2019-05-02T11:59:33.278Z,3.40
2019-05-02T12:00:33.273Z,3.60
2019-05-02T12:01:37.189Z,3.70
2019-05-02T12:02:34.246Z,3.30
2019-05-02T12:03:36.879Z,3.80
2019-05-02T12:04:33.225Z,3.60
2019-05-02T12:05:35.679Z,3.40
2019-05-02T12:06:33.314Z,3.70
2019-05-02T12:07:33.205Z,3.70
2019-05-02T12:08:33.199Z,3.50
2019-05-02T12:09:33.169Z,3.80
2019-05-02T12:10:36.645Z,3.70
2019-05-02T12:11:33.171Z,3.80
2019-05-02T12:12:36.256Z,3.40
2019-05-02T12:13:33.142Z,3.30
2019-05-02T12:14:36.341Z,3.60
2019-05-02T12:15:33.106Z,3.20
2019-05-02T12:16:33.095Z,3.70
2019-05-02T12:17:33.104Z,3.70
2019-05-02T12:18:33.074Z,3.60
2019-05-02T12:19:33.061Z,3.40
2019-05-02T12:20:36.499Z,4.20
2019-05-02T12:21:33.045Z,4.20
2019-05-02T12:22:33.036Z,3.50
2019-05-02T12:23:36.050Z,3.50
2019-05-02T12:24:36.334Z,3.50
2019-05-02T12:25:33.991Z,3.80
2019-05-02T12:26:33.022Z,3.90
2019-05-02T12:27:33.018Z,4.00
2019-05-02T12:28:32.962Z,4.00
2019-05-02T12:29:33.477Z,3.50
2019-05-02T12:30:34.137Z,3.70
2019-05-02T12:31:32.963Z,3.50
2019-05-02T12:32:33.408Z,4.40
2019-05-02T12:33:32.906Z,4.00
2019-05-02T12:34:32.946Z,3.60
2019-05-02T12:35:32.894Z,3.90
2019-05-02T12:36:33.433Z,4.50
2019-05-02T12:37:32.876Z,3.90
2019-05-02T12:38:32.854Z,4.00
2019-05-02T12:39:32.846Z,4.10
2019-05-02T12:40:32.832Z,3.90
2019-05-02T12:41:33.245Z,4.00
2019-05-02T12:42:33.579Z,4.40
2019-05-02T12:43:32.819Z,4.00
2019-05-02T12:44:32.790Z,4.50
2019-05-02T12:45:33.693Z,4.30
2019-05-02T12:46:32.768Z,4.00
2019-05-02T12:47:32.781Z,4.10
2019-05-02T12:48:32.884Z,4.40
2019-05-02T12:49:32.760Z,4.40
2019-05-02T12:50:32.723Z,4.60
2019-05-02T12:51:32.721Z,4.30
2019-05-02T12:52:32.715Z,4.70
2019-05-02T12:53:32.733Z,4.30
2019-05-02T12:54:32.693Z,3.90
2019-05-02T12:55:32.728Z,4.10
2019-05-02T12:56:32.665Z,3.20
2019-05-02T12:57:32.667Z,3.40
2019-05-02T12:58:32.672Z,3.70